Time;durP1;ratioP1;P1;durP2;ratioP2;P2;SDS_P1;SDS_P2;PMS_P1;PMS_P2;Temp;Humidity;BMP_temperature;BMP_pressure;BME280_temperature;BME280_humidity;BME280_pressure;Samples;Min_cycle;Max_cycle;Signal;HPM_P1;HPM_P2
2023/04/10 00:02:14;;;;;;;16.40;12.98;;;;;;;;;;4441019;32;20026;-86
2023/04/10 00:04:39;;;;;;;;;;;;;;;;;;4439643;32;20362;-88
2023/04/10 00:07:05;;;;;;;17.20;13.82;;;;;;;;;;4440075;32;20267;-88
2023/04/10 00:09:30;;;;;;;19.48;13.88;;;;;;;;;;4438513;32;20101;-88
2023/04/10 00:11:55;;;;;;;;;;;;;;;;;;4439929;32;20409;-88
2023/04/10 00:14:23;;;;;;;18.87;13.80;;;;;;;;;;4439203;32;19936;-88
2023/04/10 00:16:48;;;;;;;17.65;12.65;;;;;;;;;;4438589;32;20139;-88
2023/04/10 00:19:13;;;;;;;;;;;;;;;;;;4439461;32;20018;-88
2023/04/10 00:21:39;;;;;;;16.48;12.80;;;;;;;;;;4441161;32;19941;-87
2023/04/10 00:24:04;;;;;;;;;;;;;;;;;;4442586;32;20022;-88
2023/04/10 00:26:29;;;;;;;17.92;13.60;;;;;;;;;;4440268;32;19936;-87
2023/04/10 00:28:54;;;;;;;;;;;;;;;;;;4443365;32;20131;-87
2023/04/10 00:31:19;;;;;;;19.23;13.98;;;;;;;;;;4452827;32;19967;-87
2023/04/10 00:33:45;;;;;;;;;;;;;;;;;;4452751;32;20098;-87
2023/04/10 00:36:10;;;;;;;21.17;13.93;;;;;;;;;;4453357;32;19933;-85
2023/04/10 00:38:36;;;;;;;;;;;;;;;;;;4451234;32;20139;-86
2023/04/10 00:41:02;;;;;;;18.33;13.45;;;;;;;;;;4451700;32;19921;-86
2023/04/10 00:43:27;;;;;;;;;;;;;;;;;;4451700;32;20073;-86
2023/04/10 00:45:52;;;;;;;19.70;13.65;;;;;;;;;;4452287;32;19933;-86
2023/04/10 00:48:17;;;;;;;19.12;13.50;;;;;;;;;;4451707;32;20079;-87
2023/04/10 00:50:42;;;;;;;;;;;;;;;;;;4442999;32;20057;-89
2023/04/10 00:53:09;;;;;;;20.83;13.65;;;;;;;;;;4446565;32;19945;-88
2023/04/10 00:55:34;;;;;;;19.52;14.10;;;;;;;;;;4452928;32;20146;-88
2023/04/10 00:57:59;;;;;;;;;;;;;;;;;;4452666;32;20085;-88
2023/04/10 01:00:25;;;;;;;17.75;12.93;;;;;;;;;;4452665;32;19909;-87
2023/04/10 01:02:50;;;;;;;19.58;14.13;;;;;;;;;;4452738;32;20028;-87
2023/04/10 01:05:15;;;;;;;;;;;;;;;;;;4438895;32;20021;-88
2023/04/10 01:07:43;;;;;;;21.00;14.10;;;;;;;;;;4448237;32;19945;-88
2023/04/10 01:10:12;;;;;;;21.10;12.43;;;;;;;;;;4442158;32;20057;-87
2023/04/10 01:12:48;;;;;;;17.02;12.90;;;;;;;;;;4442388;32;20068;-86
2023/04/10 01:15:21;;;;;;;17.92;13.15;;;;;;;;;;4443870;32;20084;-87
2023/04/10 01:17:49;;;;;;;19.67;13.45;;;;;;;;;;4441714;32;20052;-86
2023/04/10 01:20:22;;;;;;;17.45;13.35;;;;;;;;;;4439931;32;20029;-86
2023/04/10 01:23:05;;;;;;;19.33;14.10;;;;;;;;;;4438576;32;20044;-87
2023/04/10 01:25:38;;;;;;;17.77;12.32;;;;;;;;;;4439453;32;20022;-87
2023/04/10 01:28:09;;;;;;;18.35;13.77;;;;;;;;;;4446504;32;20089;-85
2023/04/10 01:30:36;;;;;;;18.10;12.25;;;;;;;;;;4446338;32;20033;-86
2023/04/10 01:33:02;;;;;;;19.55;13.52;;;;;;;;;;4445498;32;20030;-85
2023/04/10 01:35:29;;;;;;;16.92;12.37;;;;;;;;;;4444864;32;20115;-85
2023/04/10 01:37:55;;;;;;;19.85;13.75;;;;;;;;;;4443418;32;20049;-85
2023/04/10 01:40:20;;;;;;;;;;;;;;;;;;4443367;32;20048;-86
2023/04/10 01:42:55;;;;;;;19.55;14.10;;;;;;;;;;4440717;32;19969;-85
2023/04/10 01:45:24;;;;;;;18.55;13.05;;;;;;;;;;4439997;32;20129;-87
2023/04/10 01:47:50;;;;;;;18.70;14.25;;;;;;;;;;4438419;32;20022;-87
2023/04/10 01:50:15;;;;;;;;;;;;;;;;;;4437550;32;20440;-87
2023/04/10 01:52:41;;;;;;;20.80;14.13;;;;;;;;;;4438116;32;19945;-87
2023/04/10 01:55:06;;;;;;;;;;;;;;;;;;4446610;32;20113;-86
2023/04/10 01:57:31;;;;;;;18.23;12.52;;;;;;;;;;4452716;32;19928;-85
2023/04/10 01:59:57;;;;;;;18.42;13.45;;;;;;;;;;4453354;32;20037;-86
2023/04/10 02:02:22;;;;;;;;;;;;;;;;;;4453827;32;20054;-86
2023/04/10 02:04:50;;;;;;;17.83;12.73;;;;;;;;;;4440135;32;19968;-85
2023/04/10 02:07:18;;;;;;;18.23;13.52;;;;;;;;;;4439305;32;20058;-86
2023/04/10 02:09:56;;;;;;;18.75;12.98;;;;;;;;;;4438909;32;20025;-85
2023/04/10 02:12:25;;;;;;;20.90;13.85;;;;;;;;;;4438102;32;20455;-86
2023/04/10 02:14:52;;;;;;;16.65;13.00;;;;;;;;;;4438150;32;20064;-86
2023/04/10 02:17:19;;;;;;;17.23;12.48;;;;;;;;;;4437063;32;20022;-86
2023/04/10 02:19:46;;;;;;;15.15;12.00;;;;;;;;;;4439932;32;20022;-86
2023/04/10 02:22:11;;;;;;;18.27;13.25;;;;;;;;;;4440397;32;20013;-87
2023/04/10 02:24:36;;;;;;;;;;;;;;;;;;4441374;32;20134;-88
2023/04/10 02:27:02;;;;;;;22.55;13.55;;;;;;;;;;4444820;32;19933;-86
2023/04/10 02:29:27;;;;;;;;;;;;;;;;;;4454141;32;20137;-86
2023/04/10 02:31:52;;;;;;;17.15;12.37;;;;;;;;;;4451538;32;19941;-86
2023/04/10 02:34:17;;;;;;;;;;;;;;;;;;4446275;32;20175;-86
2023/04/10 02:36:43;;;;;;;17.37;11.98;;;;;;;;;;4441378;32;19971;-87
2023/04/10 02:39:08;;;;;;;17.27;12.40;;;;;;;;;;4441319;32;20029;-87
2023/04/10 02:41:33;;;;;;;;;;;;;;;;;;4440113;32;20018;-87
2023/04/10 02:43:58;;;;;;;18.50;13.43;;;;;;;;;;4440238;32;19968;-86
2023/04/10 02:46:23;;;;;;;16.73;12.18;;;;;;;;;;4446921;32;20014;-85
2023/04/10 02:48:48;;;;;;;;;;;;;;;;;;4449321;32;20095;-86
2023/04/10 02:51:14;;;;;;;16.80;12.70;;;;;;;;;;4441500;32;19970;-85
2023/04/10 02:53:39;;;;;;;;;;;;;;;;;;4439951;32;20120;-85
2023/04/10 02:56:08;;;;;;;17.23;12.07;;;;;;;;;;4443815;32;19953;-85
2023/04/10 02:58:33;;;;;;;18.33;12.10;;;;;;;;;;4434412;32;20446;-86
2023/04/10 03:00:58;;;;;;;;;;;;;;;;;;4424422;32;20018;-85
2023/04/10 03:03:24;;;;;;;17.65;12.75;;;;;;;;;;4422972;32;19955;-86
2023/04/10 03:05:49;;;;;;;;;;;;;;;;;;4423120;32;20042;-85
2023/04/10 03:08:16;;;;;;;15.55;12.10;;;;;;;;;;4424090;32;20300;-85
2023/04/10 03:10:45;;;;;;;17.00;12.55;;;;;;;;;;4425545;32;20026;-85
2023/04/10 03:13:10;;;;;;;16.60;12.98;;;;;;;;;;4422494;32;20068;-85
2023/04/10 03:15:37;;;;;;;;;;;;;;;;;;4423460;32;20415;-86
2023/04/10 03:18:05;;;;;;;16.20;11.68;;;;;;;;;;4422279;32;19941;-85
2023/04/10 03:20:31;;;;;;;16.87;12.70;;;;;;;;;;4408926;32;20011;-85
2023/04/10 03:22:57;;;;;;;;;;;;;;;;;;4407931;32;20054;-87
2023/04/10 03:25:22;;;;;;;17.08;12.80;;;;;;;;;;4408699;32;19967;-85
2023/04/10 03:27:47;;;;;;;;;;;;;;;;;;4409185;32;20217;-85
2023/04/10 03:30:12;;;;;;;16.20;11.23;;;;;;;;;;4407508;32;19937;-85
2023/04/10 03:32:38;;;;;;;;;;;;;;;;;;4406561;32;20485;-85
2023/04/10 03:35:03;;;;;;;16.42;11.35;;;;;;;;;;4409082;32;19948;-84
2023/04/10 03:37:28;;;;;;;;;;;;;;;;;;4419779;32;20050;-84
2023/04/10 03:39:54;;;;;;;16.20;11.73;;;;;;;;;;4406527;32;20383;-85
2023/04/10 03:42:19;;;;;;;;;;;;;;;;;;4407470;32;20072;-85
2023/04/10 03:44:44;;;;;;;14.63;10.40;;;;;;;;;;4407495;32;19953;-85
2023/04/10 03:47:09;;;;;;;;;;;;;;;;;;4407572;32;20031;-85
2023/04/10 03:49:34;;;;;;;16.08;11.38;;;;;;;;;;4408492;32;20363;-85
2023/04/10 03:51:59;;;;;;;;;;;;;;;;;;4408674;32;20176;-85
2023/04/10 03:54:25;;;;;;;14.93;10.13;;;;;;;;;;4406951;32;19986;-86
2023/04/10 03:56:50;;;;;;;;;;;;;;;;;;4406886;32;20452;-85
2023/04/10 03:59:15;;;;;;;14.08;10.00;;;;;;;;;;4421196;32;20319;-86
2023/04/10 04:01:40;;;;;;;;;;;;;;;;;;4422886;32;20022;-86
2023/04/10 04:04:05;;;;;;;12.70;9.80;;;;;;;;;;4422374;32;19957;-86
2023/04/10 04:06:31;;;;;;;13.13;10.00;;;;;;;;;;4425468;32;20015;-86
2023/04/10 04:08:56;;;;;;;;;;;;;;;;;;4439120;32;20003;-85
2023/04/10 04:11:21;;;;;;;12.30;9.50;;;;;;;;;;4426360;32;19937;-85
2023/04/10 04:13:46;;;;;;;16.17;11.15;;;;;;;;;;4422160;32;20407;-84
2023/04/10 04:16:12;;;;;;;14.60;10.93;;;;;;;;;;4422640;32;20441;-85
2023/04/10 04:18:37;;;;;;;;;;;;;;;;;;4435658;32;20169;-85
2023/04/10 04:21:02;;;;;;;13.57;10.13;;;;;;;;;;4433866;32;19949;-85
2023/04/10 04:23:27;;;;;;;14.30;10.50;;;;;;;;;;4431960;32;20057;-85
2023/04/10 04:25:54;;;;;;;;;;;;;;;;;;4429707;32;20044;-85
2023/04/10 04:28:20;;;;;;;13.75;10.35;;;;;;;;;;4431821;32;19944;-85
2023/04/10 04:30:45;;;;;;;;;;;;;;;;;;4432824;32;20085;-85
2023/04/10 04:33:10;;;;;;;13.45;10.45;;;;;;;;;;4427830;32;19951;-85
2023/04/10 04:35:35;;;;;;;;;;;;;;;;;;4425409;32;20022;-85
2023/04/10 04:38:00;;;;;;;14.75;11.00;;;;;;;;;;4423183;32;20282;-85
2023/04/10 04:40:26;;;;;;;;;;;;;;;;;;4424413;32;20482;-86
2023/04/10 04:42:51;;;;;;;14.77;10.48;;;;;;;;;;4424202;32;19974;-85
2023/04/10 04:45:16;;;;;;;;;;;;;;;;;;4421681;32;20030;-84
2023/04/10 04:47:41;;;;;;;13.50;9.88;;;;;;;;;;4422866;32;20333;-83
2023/04/10 04:50:06;;;;;;;;;;;;;;;;;;4429108;32;20140;-85
2023/04/10 04:52:34;;;;;;;13.85;9.90;;;;;;;;;;4438368;32;19997;-84
2023/04/10 04:54:59;;;;;;;16.33;11.18;;;;;;;;;;4443091;32;20117;-84
2023/04/10 04:57:24;;;;;;;;;;;;;;;;;;4443986;32;20021;-85
2023/04/10 04:59:49;;;;;;;12.70;9.77;;;;;;;;;;4455768;32;19952;-85
2023/04/10 05:02:15;;;;;;;;;;;;;;;;;;4446071;32;20149;-84
2023/04/10 05:04:40;;;;;;;14.68;10.40;;;;;;;;;;4443547;32;19936;-84
2023/04/10 05:07:06;;;;;;;;;;;;;;;;;;4458136;32;20047;-84
2023/04/10 05:09:31;;;;;;;16.52;10.98;;;;;;;;;;4461577;32;19948;-84
2023/04/10 05:11:56;;;;;;;13.23;9.50;;;;;;;;;;4463396;32;20074;-84
2023/04/10 05:14:21;;;;;;;12.32;9.98;;;;;;;;;;4446037;32;20029;-84
2023/04/10 05:16:46;;;;;;;12.07;9.80;;;;;;;;;;4444313;32;20022;-85
2023/04/10 05:19:12;;;;;;;12.65;9.75;;;;;;;;;;4456349;32;20100;-84
2023/04/10 05:21:37;;;;;;;;;;;;;;;;;;4457712;32;20061;-85
2023/04/10 05:24:02;;;;;;;13.02;9.95;;;;;;;;;;4444519;32;19947;-84
2023/04/10 05:26:27;;;;;;;13.62;9.98;;;;;;;;;;4445252;32;20053;-83
2023/04/10 05:28:52;;;;;;;;;;;;;;;;;;4442434;32;20086;-84
2023/04/10 05:31:18;;;;;;;12.82;9.93;;;;;;;;;;4453638;32;19957;-85
2023/04/10 05:33:43;;;;;;;;;;;;;;;;;;4439588;32;20547;-85
2023/04/10 05:36:09;;;;;;;13.80;10.13;;;;;;;;;;4445238;32;19968;-82
2023/04/10 05:38:34;;;;;;;13.32;9.82;;;;;;;;;;4461264;32;20083;-84
2023/04/10 05:40:59;;;;;;;;;;;;;;;;;;4454079;32;20026;-86
2023/04/10 05:43:25;;;;;;;13.95;10.40;;;;;;;;;;4454588;32;19933;-85
2023/04/10 05:45:50;;;;;;;;;;;;;;;;;;4453401;32;20128;-85
2023/04/10 05:48:15;;;;;;;13.32;10.13;;;;;;;;;;4453554;32;19937;-85
2023/04/10 05:50:40;;;;;;;13.13;9.68;;;;;;;;;;4453126;32;20089;-83
2023/04/10 05:53:05;;;;;;;;;;;;;;;;;;4441125;32;20470;-84
2023/04/10 05:55:31;;;;;;;12.30;9.07;;;;;;;;;;4456824;32;19947;-84
2023/04/10 05:57:56;;;;;;;13.90;10.18;;;;;;;;;;4457486;32;20432;-84
2023/04/10 06:00:21;;;;;;;;;;;;;;;;;;4456534;32;20070;-85
2023/04/10 06:02:46;;;;;;;14.18;9.90;;;;;;;;;;4442890;32;19936;-85
2023/04/10 06:05:11;;;;;;;;;;;;;;;;;;4446372;32;20158;-85
2023/04/10 06:07:36;;;;;;;10.93;9.05;;;;;;;;;;4445039;32;19944;-85
2023/04/10 06:10:02;;;;;;;12.65;9.65;;;;;;;;;;4442788;32;20029;-84
2023/04/10 06:12:27;;;;;;;;;;;;;;;;;;4442680;32;20045;-84
2023/04/10 06:14:52;;;;;;;12.15;9.63;;;;;;;;;;4469475;32;19955;-83
2023/04/10 06:17:20;;;;;;;12.57;9.52;;;;;;;;;;4468238;32;20483;-83
2023/04/10 06:19:45;;;;;;;12.27;9.10;;;;;;;;;;4446554;32;20070;-84
2023/04/10 06:22:10;;;;;;;;;;;;;;;;;;4442458;32;20033;-84
2023/04/10 06:24:35;;;;;;;12.95;9.70;;;;;;;;;;4428502;32;19984;-84
2023/04/10 06:27:01;;;;;;;12.37;9.75;;;;;;;;;;4441167;32;20037;-86
2023/04/10 06:29:26;;;;;;;;;;;;;;;;;;4428134;32;20026;-86
2023/04/10 06:31:51;;;;;;;14.73;10.93;;;;;;;;;;4426619;32;19971;-85
2023/04/10 06:34:16;;;;;;;13.27;10.35;;;;;;;;;;4424888;32;20078;-83
2023/04/10 06:36:41;;;;;;;;;;;;;;;;;;4439829;32;20022;-83
2023/04/10 06:39:07;;;;;;;17.92;10.82;;;;;;;;;;4424674;32;19949;-84
2023/04/10 06:41:32;;;;;;;12.55;9.68;;;;;;;;;;4426848;32;20067;-83
2023/04/10 06:43:57;;;;;;;;;;;;;;;;;;4448494;32;20080;-85
2023/04/10 06:46:22;;;;;;;11.98;10.00;;;;;;;;;;4425718;32;19936;-85
2023/04/10 06:48:48;;;;;;;15.73;10.15;;;;;;;;;;4438036;32;20099;-83
2023/04/10 06:51:14;;;;;;;13.00;10.05;;;;;;;;;;4455283;32;20025;-84
2023/04/10 06:53:39;;;;;;;;;;;;;;;;;;4441349;32;20084;-84
2023/04/10 06:56:05;;;;;;;12.80;9.93;;;;;;;;;;4440703;32;19940;-84
2023/04/10 06:58:31;;;;;;;12.63;9.85;;;;;;;;;;4455054;32;20033;-84
2023/04/10 07:00:57;;;;;;;;;;;;;;;;;;4441089;32;20081;-85
2023/04/10 07:03:22;;;;;;;12.35;10.27;;;;;;;;;;4454435;32;19932;-85
2023/04/10 07:05:47;;;;;;;;;;;;;;;;;;4455358;32;20158;-85
2023/04/10 07:08:13;;;;;;;11.45;8.60;;;;;;;;;;4455940;32;19940;-84
2023/04/10 07:10:38;;;;;;;15.10;10.48;;;;;;;;;;4440192;32;20060;-85
2023/04/10 07:13:03;;;;;;;;;;;;;;;;;;4455489;32;20018;-84
2023/04/10 07:15:28;;;;;;;13.88;9.52;;;;;;;;;;4440261;32;20008;-84
2023/04/10 07:17:55;;;;;;;15.15;9.02;;;;;;;;;;4456826;32;20070;-85
2023/04/10 07:20:20;;;;;;;13.48;10.60;;;;;;;;;;4446484;32;20048;-82
2023/04/10 07:22:45;;;;;;;;;;;;;;;;;;4449690;32;20021;-86
2023/04/10 07:25:10;;;;;;;11.57;9.02;;;;;;;;;;4440197;32;19947;-84
2023/04/10 07:27:35;;;;;;;;;;;;;;;;;;4455007;32;20033;-85
2023/04/10 07:30:01;;;;;;;13.25;9.88;;;;;;;;;;4440379;32;19955;-84
2023/04/10 07:32:26;;;;;;;13.00;9.63;;;;;;;;;;4447710;32;20026;-84
2023/04/10 07:34:51;;;;;;;15.95;9.20;;;;;;;;;;4440603;32;20063;-86
2023/04/10 07:37:17;;;;;;;;;;;;;;;;;;4426114;32;20026;-85
2023/04/10 07:39:42;;;;;;;14.57;10.15;;;;;;;;;;4441083;32;19947;-86
2023/04/10 07:42:07;;;;;;;;;;;;;;;;;;4428374;32;20413;-84
2023/04/10 07:44:32;;;;;;;14.35;9.57;;;;;;;;;;4441978;32;19955;-85
2023/04/10 07:46:57;;;;;;;13.00;9.50;;;;;;;;;;4432938;32;20041;-86
2023/04/10 07:49:23;;;;;;;17.37;10.35;;;;;;;;;;4435431;32;20037;-85
2023/04/10 07:51:48;;;;;;;14.32;10.82;;;;;;;;;;4437599;32;20080;-86
2023/04/10 07:54:13;;;;;;;;;;;;;;;;;;4458923;32;20051;-87
2023/04/10 07:56:39;;;;;;;12.32;9.77;;;;;;;;;;4470725;32;19980;-86
2023/04/10 07:59:04;;;;;;;10.57;9.05;;;;;;;;;;4470458;32;20041;-87
2023/04/10 08:01:29;;;;;;;;;;;;;;;;;;4468520;32;20066;-88
2023/04/10 08:03:55;;;;;;;18.65;9.98;;;;;;;;;;4448049;32;20008;-88
2023/04/10 08:06:20;;;;;;;;;;;;;;;;;;4457351;32;20181;-87
2023/04/10 08:08:45;;;;;;;12.35;10.07;;;;;;;;;;4434885;32;19945;-90
2023/04/10 08:11:12;;;;;;;;;;;;;;;;;;4443604;32;20108;-89
2023/04/10 08:13:37;;;;;;;13.23;8.55;;;;;;;;;;4444974;32;19947;-89
2023/04/10 08:16:03;;;;;;;12.85;11.23;;;;;;;;;;4446720;32;20048;-83
2023/04/10 08:18:28;;;;;;;;;;;;;;;;;;4453395;32;20091;-93
2023/04/10 08:20:53;;;;;;;13.65;9.68;;;;;;;;;;4450877;32;19933;-91
2023/04/10 08:23:21;;;;;;;11.77;8.70;;;;;;;;;;4450651;32;20038;-90
2023/04/10 08:25:46;;;;;;;12.35;9.68;;;;;;;;;;4448554;32;20029;-92
2023/04/10 08:28:12;;;;;;;;;;;;;;;;;;4451017;32;20048;-92
2023/04/10 08:30:37;;;;;;;12.82;9.98;;;;;;;;;;4453626;32;19943;-87
2023/04/10 08:33:02;;;;;;;;;;;;;;;;;;4454820;32;20109;-91
2023/04/10 08:35:28;;;;;;;15.75;9.98;;;;;;;;;;4448437;32;19964;-90
2023/04/10 08:37:53;;;;;;;;;;;;;;;;;;4448638;32;20082;-91
2023/04/10 08:40:19;;;;;;;12.95;9.80;;;;;;;;;;4447097;32;20027;-91
2023/04/10 08:42:45;;;;;;;11.50;9.70;;;;;;;;;;4450377;32;20025;-92
2023/04/10 08:45:10;;;;;;;;;;;;;;;;;;4454005;32;20102;-93
2023/04/10 08:47:38;;;;;;;15.25;9.73;;;;;;;;;;4467588;32;20010;-87
2023/04/10 08:50:12;;;;;;;10.95;9.00;;;;;;;;;;4463909;32;20052;-91
2023/04/10 08:52:40;;;;;;;12.00;9.80;;;;;;;;;;4450379;32;20464;-93
2023/04/10 08:55:07;;;;;;;11.50;9.68;;;;;;;;;;4462479;32;20067;-93
2023/04/10 08:57:35;;;;;;;11.40;8.77;;;;;;;;;;4436396;32;20055;-92
2023/04/10 09:00:02;;;;;;;12.77;9.75;;;;;;;;;;4448832;32;20414;-92
2023/04/10 09:02:35;;;;;;;10.20;8.90;;;;;;;;;;4449983;32;20029;-91
2023/04/10 09:05:04;;;;;;;11.38;9.82;;;;;;;;;;4464741;32;20014;-92
2023/04/10 09:07:30;;;;;;;11.70;10.05;;;;;;;;;;4451723;32;20093;-92
2023/04/10 09:09:57;;;;;;;14.43;9.73;;;;;;;;;;4454260;32;20026;-91
2023/04/10 09:12:23;;;;;;;11.43;9.77;;;;;;;;;;4455459;32;20033;-90
2023/04/10 09:14:52;;;;;;;12.77;9.80;;;;;;;;;;4454366;32;20079;-88
2023/04/10 09:17:37;;;;;;;12.90;9.73;;;;;;;;;;4467638;32;20032;-90
2023/04/10 09:20:02;;;;;;;12.10;10.15;;;;;;;;;;4455043;32;20061;-87
2023/04/10 09:22:31;;;;;;;11.20;9.48;;;;;;;;;;4455684;32;20028;-87
2023/04/10 09:24:58;;;;;;;16.23;9.27;;;;;;;;;;4452097;32;20014;-87
2023/04/10 09:27:28;;;;;;;11.20;9.02;;;;;;;;;;4449851;32;20048;-91
2023/04/10 09:29:53;;;;;;;10.50;9.00;;;;;;;;;;4453239;32;20005;-90
2023/04/10 09:32:54;;;;;;;14.87;9.70;;;;;;;;;;4455640;32;20044;-91
2023/04/10 09:35:21;;;;;;;13.07;10.60;;;;;;;;;;4379657;32;20019;-91
2023/04/10 09:37:46;;;;;;;12.15;8.98;;;;;;;;;;4437602;32;20006;-90
2023/04/10 09:40:23;;;;;;;11.70;9.63;;;;;;;;;;4457076;32;20028;-90
2023/04/10 09:42:51;;;;;;;11.20;9.60;;;;;;;;;;4455844;32;20073;-92
2023/04/10 09:45:21;;;;;;;13.65;10.10;;;;;;;;;;4446493;32;20093;-89
2023/04/10 09:48:03;;;;;;;12.35;9.60;;;;;;;;;;4446455;32;20036;-89
2023/04/10 09:50:35;;;;;;;16.62;9.43;;;;;;;;;;4445761;32;20024;-90
2023/04/10 09:53:00;;;;;;;11.57;10.27;;;;;;;;;;4446061;32;20033;-89
2023/04/10 09:55:26;;;;;;;11.38;9.38;;;;;;;;;;4447238;32;20074;-87
2023/04/10 09:57:52;;;;;;;10.77;9.07;;;;;;;;;;4448892;32;20034;-88
2023/04/10 10:00:17;;;;;;;10.60;9.38;;;;;;;;;;4456622;32;20070;-88
2023/04/10 10:02:42;;;;;;;;;;;;;;;;;;4452057;32;20013;-88
2023/04/10 10:05:12;;;;;;;11.93;9.48;;;;;;;;;;4453393;32;20020;-89
2023/04/10 10:07:38;;;;;;;12.27;10.00;;;;;;;;;;4449688;32;20111;-88
2023/04/10 10:10:05;;;;;;;12.23;9.50;;;;;;;;;;4464028;32;20414;-89
2023/04/10 10:12:35;;;;;;;10.52;8.50;;;;;;;;;;4445875;32;20096;-90
2023/04/10 10:15:19;;;;;;;11.12;9.82;;;;;;;;;;4444953;32;20070;-89
2023/04/10 10:17:48;;;;;;;13.48;9.55;;;;;;;;;;4444733;32;20041;-88
2023/04/10 10:20:16;;;;;;;12.60;9.20;;;;;;;;;;4444033;32;20026;-88
2023/04/10 10:22:42;;;;;;;12.07;9.68;;;;;;;;;;4442579;32;20025;-88
2023/04/10 10:25:07;;;;;;;10.85;9.25;;;;;;;;;;4443557;32;20017;-88
2023/04/10 10:27:36;;;;;;;12.65;9.65;;;;;;;;;;4455774;32;20021;-88
2023/04/10 10:30:02;;;;;;;12.30;8.70;;;;;;;;;;4453986;32;20055;-88
2023/04/10 10:32:28;;;;;;;12.18;10.63;;;;;;;;;;4448399;32;20013;-88
2023/04/10 10:34:53;;;;;;;10.88;9.43;;;;;;;;;;4455585;32;20048;-90
2023/04/10 10:37:20;;;;;;;11.18;9.48;;;;;;;;;;4457066;32;20052;-88
2023/04/10 10:39:45;;;;;;;13.55;8.52;;;;;;;;;;4454025;32;20099;-89
2023/04/10 10:42:20;;;;;;;10.25;7.57;;;;;;;;;;4451601;32;20017;-87
2023/04/10 10:44:48;;;;;;;10.65;8.60;;;;;;;;;;4452631;32;20039;-85
2023/04/10 10:47:16;;;;;;;12.27;9.75;;;;;;;;;;4457324;32;20051;-86
2023/04/10 10:49:55;;;;;;;14.18;8.68;;;;;;;;;;4452388;32;20026;-86
2023/04/10 10:52:35;;;;;;;11.32;8.32;;;;;;;;;;4463891;32;20025;-89
2023/04/10 10:55:20;;;;;;;11.12;8.55;;;;;;;;;;4449495;32;20021;-88
2023/04/10 10:57:46;;;;;;;11.70;9.40;;;;;;;;;;4449047;32;20080;-89
2023/04/10 11:00:11;;;;;;;12.82;9.90;;;;;;;;;;4450936;32;20047;-90
2023/04/10 11:02:37;;;;;;;12.18;9.35;;;;;;;;;;4451241;32;20021;-87
2023/04/10 11:05:02;;;;;;;10.55;8.85;;;;;;;;;;4450612;32;20074;-88
2023/04/10 11:07:47;;;;;;;10.20;8.88;;;;;;;;;;4452552;32;20022;-90
2023/04/10 11:10:12;;;;;;;9.23;7.65;;;;;;;;;;4452154;32;20010;-89
2023/04/10 11:12:58;;;;;;;11.07;7.93;;;;;;;;;;4452776;32;20093;-88
2023/04/10 11:15:24;;;;;;;11.18;8.25;;;;;;;;;;4452730;32;20022;-88
2023/04/10 11:17:50;;;;;;;10.48;8.18;;;;;;;;;;4455966;32;20029;-87
2023/04/10 11:20:16;;;;;;;12.13;7.75;;;;;;;;;;4454673;32;20017;-86
2023/04/10 11:23:00;;;;;;;8.60;7.70;;;;;;;;;;4455526;32;20048;-85
2023/04/10 11:25:44;;;;;;;11.57;8.45;;;;;;;;;;4456059;32;20014;-86
2023/04/10 11:28:30;;;;;;;10.70;8.00;;;;;;;;;;4455587;32;20022;-85
2023/04/10 11:30:55;;;;;;;8.75;7.70;;;;;;;;;;4455857;32;20021;-86
2023/04/10 11:33:20;;;;;;;9.25;8.15;;;;;;;;;;4455894;32;20068;-90
2023/04/10 11:35:46;;;;;;;9.00;7.78;;;;;;;;;;4456306;32;20013;-89
2023/04/10 11:38:16;;;;;;;11.38;7.47;;;;;;;;;;4456904;32;20006;-91
2023/04/10 11:40:58;;;;;;;9.38;7.68;;;;;;;;;;4452760;32;20052;-90
2023/04/10 11:43:23;;;;;;;10.07;7.87;;;;;;;;;;4449563;32;20061;-91
2023/04/10 11:45:48;;;;;;;8.65;7.47;;;;;;;;;;4451077;32;20057;-91
2023/04/10 11:48:14;;;;;;;16.92;8.57;;;;;;;;;;4455540;32;20041;-90
2023/04/10 11:50:40;;;;;;;8.65;7.32;;;;;;;;;;4453976;32;20036;-90
2023/04/10 11:53:22;;;;;;;10.30;8.07;;;;;;;;;;4447412;32;20021;-90
2023/04/10 11:55:48;;;;;;;8.77;7.12;;;;;;;;;;4446006;32;20060;-91
2023/04/10 11:58:23;;;;;;;9.90;7.75;;;;;;;;;;4443704;32;20037;-89
2023/04/10 12:00:59;;;;;;;9.05;7.43;;;;;;;;;;4449797;32;20033;-89
2023/04/10 12:03:38;;;;;;;8.80;7.32;;;;;;;;;;4442140;32;20001;-90
2023/04/10 12:06:13;;;;;;;9.32;7.20;;;;;;;;;;4447173;32;20017;-89
2023/04/10 12:08:40;;;;;;;9.10;6.40;;;;;;;;;;4453631;32;20058;-88
2023/04/10 12:11:06;;;;;;;10.15;7.43;;;;;;;;;;4451719;32;20020;-90
2023/04/10 12:13:32;;;;;;;9.32;6.53;;;;;;;;;;4453594;32;20086;-87
2023/04/10 12:15:59;;;;;;;8.65;6.65;;;;;;;;;;4452202;32;20018;-88
2023/04/10 12:18:25;;;;;;;9.90;6.57;;;;;;;;;;4454267;32;20072;-89
2023/04/10 12:20:54;;;;;;;8.43;6.12;;;;;;;;;;4455978;32;20006;-88
2023/04/10 12:23:19;;;;;;;9.45;6.10;;;;;;;;;;4456698;32;20042;-88
2023/04/10 12:25:45;;;;;;;7.65;6.18;;;;;;;;;;4456257;32;20073;-86
2023/04/10 12:28:16;;;;;;;8.25;6.50;;;;;;;;;;4456030;32;20010;-85
2023/04/10 12:30:54;;;;;;;13.90;6.60;;;;;;;;;;4456662;32;20046;-86
2023/04/10 13:48:05;;;;;;;13.00;8.95;;;;;;;;;;1319400;27;21108;-81
2023/04/10 13:50:31;;;;;;;14.20;10.20;;;;;;;;;;4395170;32;20106;-82
2023/04/10 13:52:56;;;;;;;14.60;10.30;;;;;;;;;;4379265;32;20049;-82
2023/04/10 13:55:21;;;;;;;13.30;10.43;;;;;;;;;;4392471;32;20396;-84
2023/04/10 13:57:46;;;;;;;18.73;12.00;;;;;;;;;;4379033;32;20050;-84
2023/04/10 14:00:12;;;;;;;12.23;9.68;;;;;;;;;;4378508;32;20035;-83
2023/04/10 14:02:37;;;;;;;11.77;10.07;;;;;;;;;;4379247;32;20090;-83
2023/04/10 14:05:03;;;;;;;11.77;9.20;;;;;;;;;;4396194;32;20093;-82
2023/04/10 14:07:28;;;;;;;14.73;10.45;;;;;;;;;;4382542;32;20061;-82
2023/04/10 14:09:53;;;;;;;15.75;11.27;;;;;;;;;;4394365;32;20084;-80
2023/04/10 14:12:18;;;;;;;;;;;;;;;;;;4393818;32;20053;-79
2023/04/10 14:14:44;;;;;;;11.15;8.88;;;;;;;;;;4393457;32;19952;-79
2023/04/10 14:17:09;;;;;;;;;;;;;;;;;;4379595;32;20122;-78
2023/04/10 14:19:35;;;;;;;11.27;9.10;;;;;;;;;;4393397;32;19938;-79
2023/04/10 14:22:00;;;;;;;10.45;7.87;;;;;;;;;;4379594;32;20034;-78
2023/04/10 14:24:25;;;;;;;13.07;9.80;;;;;;;;;;4393044;32;20049;-79
2023/04/10 14:26:52;;;;;;;10.30;8.93;;;;;;;;;;4393811;32;20050;-80
2023/04/10 14:29:18;;;;;;;11.73;9.48;;;;;;;;;;4393377;32;20348;-79
2023/04/10 14:31:43;;;;;;;16.05;9.75;;;;;;;;;;4379321;32;20038;-80
2023/04/10 14:34:08;;;;;;;13.27;9.23;;;;;;;;;;4395979;32;20061;-80
2023/04/10 14:36:33;;;;;;;;;;;;;;;;;;4399467;32;20019;-77
2023/04/10 14:38:58;;;;;;;13.90;10.40;;;;;;;;;;4396134;32;19968;-77
2023/04/10 14:41:24;;;;;;;13.30;10.45;;;;;;;;;;4395949;32;20022;-78
2023/04/10 14:43:49;;;;;;;12.93;10.27;;;;;;;;;;4386080;32;20027;-78
2023/04/10 14:46:14;;;;;;;;;;;;;;;;;;4398700;32;20050;-79
2023/04/10 14:48:39;;;;;;;15.13;11.57;;;;;;;;;;4400293;32;19978;-78
2023/04/10 14:51:08;;;;;;;16.20;11.38;;;;;;;;;;4401934;32;20027;-77
2023/04/10 14:53:33;;;;;;;16.33;11.90;;;;;;;;;;4398603;32;20022;-78
2023/04/10 14:55:58;;;;;;;;;;;;;;;;;;4398449;32;20027;-77
2023/04/10 14:58:24;;;;;;;15.38;9.98;;;;;;;;;;4404732;32;19941;-75
2023/04/10 15:00:50;;;;;;;;;;;;;;;;;;4394997;32;20240;-79
2023/04/10 15:03:15;;;;;;;17.45;11.88;;;;;;;;;;4393074;32;19941;-77
2023/04/10 15:05:41;;;;;;;18.92;12.23;;;;;;;;;;4396081;32;20456;-77
2023/04/10 15:08:06;;;;;;;;;;;;;;;;;;4394731;32;20022;-77
2023/04/10 15:10:31;;;;;;;16.40;11.95;;;;;;;;;;4394916;32;19945;-77
2023/04/10 15:12:56;;;;;;;;;;;;;;;;;;4393520;32;20126;-76
2023/04/10 15:15:23;;;;;;;16.30;12.73;;;;;;;;;;4392662;32;19938;-76
2023/04/10 15:17:48;;;;;;;17.98;14.25;;;;;;;;;;4399253;32;20152;-76
2023/04/10 15:20:13;;;;;;;;;;;;;;;;;;4402435;32;20359;-77
2023/04/10 15:22:41;;;;;;;19.60;14.13;;;;;;;;;;4401415;32;19941;-76
2023/04/10 15:25:08;;;;;;;19.67;14.75;;;;;;;;;;4390561;32;20057;-76
2023/04/10 15:27:35;;;;;;;16.35;13.85;;;;;;;;;;4391374;32;20045;-76
2023/04/10 15:30:00;;;;;;;17.48;15.07;;;;;;;;;;4392305;32;20378;-76
2023/04/10 15:32:25;;;;;;;;;;;;;;;;;;4392851;32;20061;-78
2023/04/10 15:34:50;;;;;;;18.58;15.43;;;;;;;;;;4392149;32;19942;-76
2023/04/10 15:37:15;;;;;;;19.12;14.55;;;;;;;;;;4391625;32;20018;-77
2023/04/10 15:39:41;;;;;;;;;;;;;;;;;;4388334;32;20426;-77
2023/04/10 15:42:07;;;;;;;18.33;15.38;;;;;;;;;;4375022;32;19972;-76
2023/04/10 15:44:32;;;;;;;18.70;15.25;;;;;;;;;;4375113;32;20023;-76
2023/04/10 15:46:57;;;;;;;;;;;;;;;;;;4387191;32;20364;-76
2023/04/10 15:49:22;;;;;;;18.17;14.18;;;;;;;;;;4391642;32;19979;-77
2023/04/10 15:51:47;;;;;;;;;;;;;;;;;;4391990;32;20119;-77
2023/04/10 15:54:12;;;;;;;20.90;17.00;;;;;;;;;;4390125;32;19989;-75
2023/04/10 15:56:39;;;;;;;24.83;17.45;;;;;;;;;;4391312;32;20031;-76
2023/04/10 15:59:04;;;;;;;20.05;14.77;;;;;;;;;;4391479;32;20116;-77
2023/04/10 16:01:29;;;;;;;15.80;12.37;;;;;;;;;;4391761;32;20064;-78
2023/04/10 16:03:55;;;;;;;14.27;12.57;;;;;;;;;;4391399;32;20118;-77
2023/04/10 16:06:24;;;;;;;;;;;;;;;;;;4391508;32;20447;-76
2023/04/10 16:08:50;;;;;;;14.02;11.55;;;;;;;;;;4392224;32;19938;-78